Time;durP1;ratioP1;P1;durP2;ratioP2;P2;SDS_P1;SDS_P2;PMS_P1;PMS_P2;Temp;Humidity;BMP_temperature;BMP_pressure;BME280_temperature;BME280_humidity;BME280_pressure;Samples;Min_cycle;Max_cycle;Signal;HPM_P1;HPM_P2
2023/03/16 00:01:41;;;;;;;5.13;3.07;;;;;;;1.49;99.09;96657.09;4973629;28;20206;-71
2023/03/16 00:04:08;;;;;;;8.03;2.77;;;;;;;1.41;99.71;96650.78;4971806;28;20240;-71
2023/03/16 00:06:36;;;;;;;5.13;2.77;;;;;;;1.47;99.75;96642.56;4973147;28;20672;-71
2023/03/16 00:09:04;;;;;;;5.70;2.37;;;;;;;1.55;99.17;96654.03;4972156;28;20255;-71
2023/03/16 00:11:31;;;;;;;6.47;2.47;;;;;;;1.43;98.07;96652.34;4973047;28;20210;-71
2023/03/16 00:13:57;;;;;;;4.63;1.83;;;;;;;1.24;98.58;96651.19;4971971;28;20246;-71
2023/03/16 00:16:24;;;;;;;7.57;3.50;;;;;;;1.28;99.58;96653.44;4972627;28;20321;-71
2023/03/16 00:18:50;;;;;;;4.73;2.60;;;;;;;1.35;99.64;96649.47;4973478;28;20204;-71
2023/03/16 00:21:16;;;;;;;6.33;2.63;;;;;;;1.34;98.75;96650.41;4972247;28;20218;-71
2023/03/16 00:23:43;;;;;;;7.73;3.07;;;;;;;1.36;98.39;96651.13;4975393;28;20753;-71
2023/03/16 00:26:11;;;;;;;4.80;2.60;;;;;;;1.36;98.46;96639.91;4975504;28;20666;-71
2023/03/16 00:28:39;;;;;;;9.83;2.57;;;;;;;1.09;99.33;96648.88;4976634;28;20318;-71
2023/03/16 00:31:07;;;;;;;5.83;3.00;;;;;;;1.10;100.00;96642.75;4975185;28;20215;-71
2023/03/16 00:33:33;;;;;;;5.73;2.90;;;;;;;1.11;99.71;96647.81;4975609;28;20195;-71
2023/03/16 00:36:03;;;;;;;9.23;3.20;;;;;;;1.21;99.76;96648.81;4975787;28;20220;-71
2023/03/16 00:38:33;;;;;;;7.00;2.90;;;;;;;1.21;100.00;96657.44;4976214;28;20557;-71
2023/03/16 00:41:02;;;;;;;7.17;3.13;;;;;;;1.09;100.00;96654.88;4976203;28;20294;-71
2023/03/16 00:43:30;;;;;;;9.60;4.20;;;;;;;1.18;100.00;96656.81;4975729;28;20289;-71
2023/03/16 00:46:05;;;;;;;7.47;3.17;;;;;;;1.29;100.00;96652.50;4975221;28;20223;-71
2023/03/16 00:48:33;;;;;;;8.27;3.33;;;;;;;1.25;100.00;96653.66;4975636;28;20240;-71
2023/03/16 00:50:59;;;;;;;15.87;3.43;;;;;;;1.31;100.00;96657.59;4976319;28;20272;-71
2023/03/16 00:53:26;;;;;;;5.93;3.33;;;;;;;1.22;100.00;96655.66;4975087;28;20698;-71
2023/03/16 00:55:52;;;;;;;9.73;3.60;;;;;;;1.12;100.00;96654.69;4974460;28;20214;-71
2023/03/16 00:58:19;;;;;;;7.33;3.13;;;;;;;0.77;100.00;96661.53;4976459;28;20272;-71
2023/03/16 01:00:48;;;;;;;6.70;3.00;;;;;;;0.83;100.00;96657.69;4974816;28;20280;-71
2023/03/16 01:03:14;;;;;;;10.63;3.67;;;;;;;0.67;100.00;96652.72;4973754;28;20211;-71
2023/03/16 01:05:42;;;;;;;11.03;4.33;;;;;;;0.85;100.00;96650.63;4974815;28;20223;-71
2023/03/16 01:08:09;;;;;;;9.73;4.00;;;;;;;1.03;100.00;96644.97;4975436;28;20493;-71
2023/03/16 01:10:36;;;;;;;5.90;2.97;;;;;;;1.14;100.00;96651.97;4974403;28;20214;-71
2023/03/16 01:13:02;;;;;;;8.03;3.80;;;;;;;1.08;100.00;96657.59;4974650;28;20208;-71
2023/03/16 01:15:29;;;;;;;10.67;3.97;;;;;;;1.07;100.00;96659.38;4973156;28;20742;-71
2023/03/16 01:17:57;;;;;;;6.07;3.00;;;;;;;1.21;100.00;96651.44;4974765;28;20210;-71
2023/03/16 01:20:25;;;;;;;5.70;3.10;;;;;;;1.12;100.00;96639.13;4974184;28;20211;-71
2023/03/16 01:22:51;;;;;;;7.90;3.70;;;;;;;1.08;100.00;96637.66;4974530;28;20212;-71
2023/03/16 01:25:19;;;;;;;10.77;3.87;;;;;;;1.13;100.00;96639.94;4973528;28;20674;-71
2023/03/16 01:27:45;;;;;;;14.83;3.93;;;;;;;1.14;100.00;96636.41;4974307;28;20208;-71
2023/03/16 01:30:13;;;;;;;13.37;5.00;;;;;;;1.23;100.00;96631.34;4974764;28;20715;-71
2023/03/16 01:32:40;;;;;;;8.23;3.93;;;;;;;1.13;100.00;96635.56;4974988;28;20206;-71
2023/03/16 01:35:09;;;;;;;9.37;4.07;;;;;;;1.19;100.00;96633.34;4973385;28;20231;-71
2023/03/16 01:37:35;;;;;;;8.17;3.43;;;;;;;1.14;100.00;96626.03;4974687;28;20472;-71
2023/03/16 01:40:03;;;;;;;8.37;3.37;;;;;;;1.10;100.00;96634.97;4975298;28;20215;-71
2023/03/16 01:42:29;;;;;;;10.30;3.90;;;;;;;1.09;100.00;96634.13;4974076;28;20485;-71
2023/03/16 01:45:00;;;;;;;7.87;3.87;;;;;;;1.04;100.00;96625.03;4974588;28;20535;-71
2023/03/16 01:47:27;;;;;;;6.37;3.07;;;;;;;1.01;100.00;96626.06;4973818;28;20207;-71
2023/03/16 01:49:56;;;;;;;12.87;3.60;;;;;;;1.04;99.72;96622.44;4975023;28;20828;-71
2023/03/16 01:52:27;;;;;;;8.67;3.63;;;;;;;0.89;99.08;96621.78;4974074;28;20208;-71
2023/03/16 01:54:58;;;;;;;8.17;3.30;;;;;;;0.94;100.00;96624.03;4974316;28;20924;-71
2023/03/16 01:57:29;;;;;;;8.67;3.53;;;;;;;0.89;100.00;96621.78;4973481;28;20215;-71
2023/03/16 02:00:17;;;;;;;8.53;2.80;;;;;;;0.91;100.00;96619.06;4974909;28;20212;-71
2023/03/16 02:02:47;;;;;;;11.57;4.00;;;;;;;0.92;100.00;96611.16;4973361;28;20683;-70
2023/03/16 02:05:19;;;;;;;9.63;3.87;;;;;;;0.95;100.00;96607.53;4972532;28;20227;-71
2023/03/16 02:07:49;;;;;;;7.97;3.53;;;;;;;0.92;100.00;96605.97;4973891;28;20199;-71
2023/03/16 02:10:17;;;;;;;8.93;4.30;;;;;;;0.90;99.86;96607.03;4974390;28;20223;-71
2023/03/16 02:12:44;;;;;;;13.63;3.80;;;;;;;0.82;100.00;96604.97;4974533;28;20506;-71
2023/03/16 02:15:12;;;;;;;9.67;3.87;;;;;;;0.77;100.00;96601.88;4972509;28;20242;-70
2023/03/16 02:17:41;;;;;;;11.23;3.67;;;;;;;0.74;100.00;96599.50;4974154;28;20265;-71
2023/03/16 02:20:21;;;;;;;12.20;4.33;;;;;;;0.57;100.00;96603.41;4974260;28;20264;-70
2023/03/16 02:22:52;;;;;;;7.60;4.00;;;;;;;0.61;100.00;96603.06;4974021;28;20213;-71
2023/03/16 02:25:26;;;;;;;9.27;3.77;;;;;;;0.76;100.00;96607.19;4973315;28;20280;-71
2023/03/16 02:28:01;;;;;;;7.77;3.80;;;;;;;0.86;100.00;96609.00;4973777;28;20667;-70
2023/03/16 02:30:29;;;;;;;11.37;3.90;;;;;;;0.81;100.00;96612.88;4973767;28;20361;-69
2023/03/16 02:32:56;;;;;;;8.53;3.93;;;;;;;0.73;100.00;96607.41;4974393;28;20203;-71
2023/03/16 02:35:23;;;;;;;14.03;4.23;;;;;;;0.67;100.00;96615.63;4973128;28;20313;-70
2023/03/16 02:37:51;;;;;;;8.70;3.73;;;;;;;0.62;100.00;96604.72;4973943;28;20229;-71
2023/03/16 02:40:21;;;;;;;10.37;4.40;;;;;;;0.76;100.00;96609.78;4973881;28;20235;-70
2023/03/16 02:42:54;;;;;;;13.10;4.00;;;;;;;0.61;99.84;96614.28;4973948;28;20288;-71
2023/03/16 02:45:21;;;;;;;5.70;3.60;;;;;;;0.55;100.00;96613.06;4972152;28;20920;-70
2023/03/16 02:47:52;;;;;;;10.33;3.97;;;;;;;0.58;100.00;96616.25;4973818;28;20215;-71
2023/03/16 02:50:19;;;;;;;11.03;4.37;;;;;;;0.62;100.00;96608.19;4973530;28;20764;-70
2023/03/16 02:52:47;;;;;;;12.83;3.63;;;;;;;0.66;99.67;96613.94;4974242;28;20211;-69
2023/03/16 02:55:14;;;;;;;13.50;4.50;;;;;;;0.58;100.00;96616.25;4972322;28;20725;-70
2023/03/16 02:57:41;;;;;;;8.27;4.73;;;;;;;0.61;100.00;96616.03;4973325;28;20667;-71
2023/03/16 03:00:12;;;;;;;8.83;4.10;;;;;;;0.63;100.00;96615.00;4973615;28;20207;-70
2023/03/16 03:02:38;;;;;;;12.03;3.73;;;;;;;0.58;100.00;96611.88;4973631;28;20208;-71
2023/03/16 03:05:07;;;;;;;10.53;3.63;;;;;;;0.69;98.65;96608.56;4972552;28;20994;-69
2023/03/16 03:07:33;;;;;;;6.83;3.63;;;;;;;0.57;99.26;96609.41;4973823;28;20674;-71
2023/03/16 03:10:01;;;;;;;6.53;3.53;;;;;;;0.56;99.96;96600.00;4973685;28;20231;-70
2023/03/16 03:12:28;;;;;;;8.33;3.47;;;;;;;0.52;99.68;96603.72;4973750;28;20200;-70
2023/03/16 03:14:56;;;;;;;6.87;3.43;;;;;;;0.43;99.26;96596.59;4972502;28;20742;-70
2023/03/16 03:17:28;;;;;;;11.23;3.67;;;;;;;0.35;100.00;96591.13;4973011;28;20851;-69
2023/03/16 03:19:55;;;;;;;8.80;3.80;;;;;;;0.34;100.00;96589.47;4973340;28;20213;-70
2023/03/16 03:22:23;;;;;;;7.83;4.07;;;;;;;0.40;100.00;96586.44;4973293;28;21070;-71
2023/03/16 03:24:50;;;;;;;7.10;3.57;;;;;;;0.18;100.00;96590.66;4972801;28;20234;-70
2023/03/16 03:27:16;;;;;;;9.33;4.03;;;;;;;0.13;100.00;96578.00;4972838;28;20325;-70
2023/03/16 03:29:43;;;;;;;6.83;3.30;;;;;;;0.17;100.00;96582.03;4973597;28;20231;-71
2023/03/16 03:32:10;;;;;;;12.10;4.60;;;;;;;0.27;100.00;96575.28;4973083;28;20573;-70
2023/03/16 03:34:37;;;;;;;6.27;3.53;;;;;;;0.25;100.00;96587.50;4971869;28;20750;-70
2023/03/16 03:37:03;;;;;;;6.90;3.90;;;;;;;0.25;100.00;96582.31;4972507;28;20202;-69
2023/03/16 03:39:31;;;;;;;6.20;3.63;;;;;;;0.39;100.00;96584.78;4973967;28;20192;-71
2023/03/16 03:41:58;;;;;;;11.47;4.10;;;;;;;0.30;100.00;96577.66;4973479;28;20609;-71
2023/03/16 03:44:25;;;;;;;9.67;4.27;;;;;;;0.31;100.00;96579.31;4971506;28;20589;-71
2023/03/16 03:46:52;;;;;;;15.00;4.33;;;;;;;0.32;100.00;96583.56;4970924;28;20204;-68
2023/03/16 03:49:19;;;;;;;8.63;4.43;;;;;;;0.39;100.00;96578.78;4973384;28;20608;-71
2023/03/16 03:51:46;;;;;;;10.13;4.37;;;;;;;0.25;100.00;96586.69;4972884;28;20211;-70
2023/03/16 03:54:12;;;;;;;8.87;4.13;;;;;;;0.31;100.00;96587.09;4972451;28;20238;-69
2023/03/16 03:56:40;;;;;;;8.00;3.80;;;;;;;0.40;100.00;96586.44;4973761;28;20585;-70
2023/03/16 03:59:06;;;;;;;11.50;4.60;;;;;;;0.18;100.00;96594.06;4976300;28;20215;-70
2023/03/16 04:01:33;;;;;;;9.97;4.17;;;;;;;0.29;100.00;96590.72;4975846;28;20210;-69
2023/03/16 04:04:00;;;;;;;9.20;4.53;;;;;;;0.32;100.00;96585.31;4975840;28;20238;-70
2023/03/16 04:06:26;;;;;;;9.53;4.77;;;;;;;0.27;100.00;96585.66;4975229;28;20207;-71
2023/03/16 04:08:54;;;;;;;8.10;4.23;;;;;;;0.35;100.00;96583.34;4977081;28;20213;-70
2023/03/16 04:11:20;;;;;;;10.60;4.73;;;;;;;0.36;100.00;96586.78;4976072;28;20215;-70
2023/03/16 04:13:51;;;;;;;8.73;4.63;;;;;;;0.40;100.00;96581.28;4975576;28;20725;-71
2023/03/16 04:16:17;;;;;;;10.03;5.13;;;;;;;0.31;100.00;96583.69;4974950;28;20211;-70
2023/03/16 04:18:45;;;;;;;11.43;4.10;;;;;;;0.32;100.00;96578.41;4976603;28;20585;-71
2023/03/16 04:21:14;;;;;;;12.23;5.03;;;;;;;0.41;100.00;96582.09;4975639;28;20237;-69
2023/03/16 04:23:41;;;;;;;9.00;3.93;;;;;;;0.24;100.00;96570.34;4975439;28;20223;-71
2023/03/16 04:26:08;;;;;;;12.37;5.07;;;;;;;0.21;100.00;96575.72;4975654;28;20207;-70
2023/03/16 04:28:34;;;;;;;10.10;4.40;;;;;;;0.16;100.00;96572.59;4976201;28;20195;-70
2023/03/16 04:31:04;;;;;;;13.33;4.77;;;;;;;0.38;100.00;96567.59;4975477;28;20223;-71
2023/03/16 04:33:31;;;;;;;12.83;4.20;;;;;;;0.36;100.00;96568.66;4975677;28;20211;-71
2023/03/16 04:35:57;;;;;;;8.40;4.50;;;;;;;0.33;100.00;96564.50;4975542;28;20700;-70
2023/03/16 04:38:24;;;;;;;10.53;5.00;;;;;;;0.40;100.00;96552.75;4975443;28;20606;-71
2023/03/16 04:40:50;;;;;;;8.33;4.17;;;;;;;0.29;100.00;96557.84;4976086;28;20218;-70
2023/03/16 04:43:19;;;;;;;9.63;3.93;;;;;;;0.37;100.00;96565.09;4974863;28;20475;-68
2023/03/16 04:45:45;;;;;;;10.73;4.40;;;;;;;0.32;100.00;96560.25;4975319;28;20213;-69
2023/03/16 04:48:13;;;;;;;7.43;4.37;;;;;;;0.42;100.00;96558.69;4975152;28;20210;-70
2023/03/16 04:50:40;;;;;;;15.37;5.87;;;;;;;0.35;100.00;96572.16;4976574;28;20227;-70
2023/03/16 04:53:06;;;;;;;11.80;4.83;;;;;;;0.34;100.00;96565.31;4975018;28;20485;-69
2023/03/16 04:55:33;;;;;;;8.67;4.70;;;;;;;0.27;100.00;96558.94;4974908;28;20252;-69
2023/03/16 04:58:00;;;;;;;8.27;4.10;;;;;;;0.30;100.00;96567.28;4975182;28;20212;-70
2023/03/16 05:00:27;;;;;;;13.50;4.57;;;;;;;0.38;100.00;96567.59;4975980;28;20445;-70
2023/03/16 05:02:54;;;;;;;8.80;4.37;;;;;;;0.34;100.00;96560.13;4975173;28;20260;-69
2023/03/16 05:05:22;;;;;;;9.00;4.70;;;;;;;0.32;100.00;96557.66;4974922;28;20614;-69
2023/03/16 05:07:49;;;;;;;10.03;4.30;;;;;;;0.24;100.00;96552.19;4975264;28;20371;-71
2023/03/16 05:10:18;;;;;;;11.67;4.80;;;;;;;0.27;100.00;96549.38;4974982;28;20600;-71
2023/03/16 05:12:45;;;;;;;8.17;4.43;;;;;;;0.33;100.00;96543.78;4975183;28;20207;-70
2023/03/16 05:15:12;;;;;;;8.37;4.13;;;;;;;0.33;100.00;96537.75;4973542;28;20828;-71
2023/03/16 05:17:40;;;;;;;7.67;4.73;;;;;;;0.19;100.00;96543.06;4974877;28;20414;-71
2023/03/16 05:20:10;;;;;;;13.10;5.50;;;;;;;0.32;100.00;96547.28;4975235;28;20280;-71
2023/03/16 05:22:40;;;;;;;11.20;4.20;;;;;;;0.37;100.00;96547.81;4975241;28;20286;-70
2023/03/16 05:25:07;;;;;;;9.50;4.70;;;;;;;0.37;99.20;96546.94;4973727;28;20592;-71
2023/03/16 05:27:34;;;;;;;9.63;4.13;;;;;;;0.23;100.00;96549.69;4975076;28;20203;-70
2023/03/16 05:30:01;;;;;;;11.40;4.40;;;;;;;0.20;100.00;96548.13;4975249;28;20227;-69
2023/03/16 05:32:27;;;;;;;11.83;4.57;;;;;;;0.16;100.00;96544.09;4974602;28;20252;-70
2023/03/16 05:34:54;;;;;;;12.30;5.93;;;;;;;0.19;100.00;96551.69;4974051;28;20310;-70
2023/03/16 05:37:20;;;;;;;10.27;5.30;;;;;;;0.29;100.00;96542.31;4974716;28;20369;-69
2023/03/16 05:39:48;;;;;;;10.60;5.00;;;;;;;0.38;99.91;96539.09;4975274;28;20206;-71
2023/03/16 05:42:14;;;;;;;9.23;4.63;;;;;;;0.33;99.19;96537.75;4974843;28;20207;-71
2023/03/16 05:44:41;;;;;;;8.77;4.03;;;;;;;0.30;99.54;96537.97;4973727;28;20223;-69
2023/03/16 05:47:07;;;;;;;7.93;4.17;;;;;;;0.35;99.91;96551.44;4974213;28;20218;-70
2023/03/16 05:49:34;;;;;;;11.00;4.13;;;;;;;0.36;100.00;96548.72;4974617;28;20753;-70
2023/03/16 05:52:00;;;;;;;7.73;4.47;;;;;;;0.26;100.00;96552.09;4974703;28;20454;-69
2023/03/16 05:54:27;;;;;;;11.43;5.33;;;;;;;0.26;100.00;96558.06;4974807;28;20227;-70
2023/03/16 05:56:55;;;;;;;9.60;4.97;;;;;;;0.36;100.00;96559.09;4974824;28;20210;-70
2023/03/16 05:59:21;;;;;;;9.23;4.17;;;;;;;0.39;100.00;96558.88;4973819;28;20216;-70
2023/03/16 06:01:49;;;;;;;9.27;4.07;;;;;;;0.42;100.00;96557.81;4976179;28;20204;-71
2023/03/16 06:04:15;;;;;;;9.43;4.30;;;;;;;0.58;100.00;96554.03;4973585;28;20227;-71
2023/03/16 06:06:42;;;;;;;10.50;5.00;;;;;;;0.62;100.00;96551.13;4974164;28;20294;-70
2023/03/16 06:09:09;;;;;;;7.90;4.37;;;;;;;0.62;100.00;96556.31;4974954;28;20211;-70
2023/03/16 06:11:35;;;;;;;11.33;4.83;;;;;;;0.73;100.00;96552.94;4974282;28;20219;-70
2023/03/16 06:14:04;;;;;;;13.10;4.73;;;;;;;0.86;100.00;96551.13;4973401;28;20234;-70
2023/03/16 06:16:30;;;;;;;6.10;3.90;;;;;;;0.83;100.00;96549.56;4974784;28;20293;-70
2023/03/16 06:18:57;;;;;;;9.93;4.93;;;;;;;0.85;100.00;96552.91;4974561;28;20207;-71
2023/03/16 06:21:23;;;;;;;11.03;5.07;;;;;;;0.77;100.00;96552.59;4974058;28;20203;-69
2023/03/16 06:23:50;;;;;;;8.77;4.03;;;;;;;0.86;100.00;96548.53;4974325;28;21069;-69
2023/03/16 06:26:16;;;;;;;12.33;4.53;;;;;;;0.90;100.00;96549.97;4974542;28;20204;-70
2023/03/16 06:28:43;;;;;;;11.57;5.23;;;;;;;0.89;100.00;96554.31;4974380;28;21112;-69
2023/03/16 06:31:10;;;;;;;9.60;4.37;;;;;;;1.03;100.00;96551.56;4974731;28;20238;-70
2023/03/16 06:33:37;;;;;;;10.53;4.47;;;;;;;1.05;100.00;96564.41;4974211;28;20203;-70
2023/03/16 06:36:04;;;;;;;16.60;5.27;;;;;;;1.21;100.00;96561.41;4973169;28;20208;-70
2023/03/16 06:38:31;;;;;;;11.47;5.63;;;;;;;1.17;100.00;96548.75;4974501;28;20214;-69
2023/03/16 06:40:57;;;;;;;12.53;4.90;;;;;;;1.28;100.00;96552.22;4974714;28;20208;-71
2023/03/16 06:43:24;;;;;;;13.50;5.20;;;;;;;1.35;100.00;96550.81;4973683;28;20208;-71
2023/03/16 06:45:50;;;;;;;14.13;5.67;;;;;;;1.45;100.00;96546.63;4974038;28;20203;-70
2023/03/16 06:48:18;;;;;;;24.97;5.87;;;;;;;1.50;100.00;96549.69;4974686;28;20226;-70
2023/03/16 06:50:45;;;;;;;10.40;5.23;;;;;;;1.54;100.00;96540.72;4974121;28;20238;-70
2023/03/16 06:53:12;;;;;;;13.40;5.83;;;;;;;1.52;100.00;96540.00;4973593;28;20207;-69
2023/03/16 06:55:39;;;;;;;10.67;5.13;;;;;;;1.60;100.00;96542.03;4974202;28;20231;-71
2023/03/16 06:58:05;;;;;;;11.53;5.47;;;;;;;1.69;100.00;96542.16;4973482;28;20208;-68
2023/03/16 07:00:32;;;;;;;9.77;5.33;;;;;;;1.77;100.00;96529.44;4974335;28;21374;-69
2023/03/16 07:02:59;;;;;;;14.27;6.27;;;;;;;1.86;100.00;96533.91;4974304;28;20207;-70
2023/03/16 07:05:27;;;;;;;16.17;6.07;;;;;;;1.98;100.00;96544.16;4972387;28;20792;-71
2023/03/16 07:07:54;;;;;;;13.73;5.87;;;;;;;2.02;100.00;96542.19;4981279;28;20205;-71
2023/03/16 07:10:20;;;;;;;12.43;6.23;;;;;;;1.87;100.00;96536.41;4982340;28;20220;-71
2023/03/16 07:12:47;;;;;;;15.37;5.70;;;;;;;2.04;100.00;96538.50;4980234;28;20239;-71
2023/03/16 07:15:14;;;;;;;14.03;6.20;;;;;;;2.05;100.00;96541.94;4975783;28;20246;-71
2023/03/16 07:17:42;;;;;;;13.60;6.20;;;;;;;2.28;100.00;96548.78;4973750;28;20655;-72
2023/03/16 07:20:11;;;;;;;20.47;6.63;;;;;;;2.26;100.00;96554.09;4974762;28;20212;-72
2023/03/16 07:22:40;;;;;;;16.57;5.67;;;;;;;2.38;100.00;96552.31;4973717;28;20692;-71
2023/03/16 07:25:08;;;;;;;15.20;7.10;;;;;;;2.40;100.00;96553.84;4973542;28;20683;-71
2023/03/16 07:27:34;;;;;;;12.93;5.90;;;;;;;2.33;100.00;96559.63;4971580;28;20227;-71
2023/03/16 07:30:01;;;;;;;11.33;5.83;;;;;;;2.44;100.00;96556.09;4973171;28;20210;-71
2023/03/16 07:32:27;;;;;;;17.67;6.10;;;;;;;2.44;100.00;96550.06;4975707;28;20207;-72
2023/03/16 07:34:54;;;;;;;15.90;6.67;;;;;;;2.61;100.00;96550.38;4975128;28;20791;-71
2023/03/16 07:37:21;;;;;;;17.67;6.73;;;;;;;2.66;100.00;96550.00;4976689;28;20325;-71
2023/03/16 07:39:48;;;;;;;16.53;7.13;;;;;;;2.79;100.00;96556.72;4976388;28;20208;-69
2023/03/16 07:42:15;;;;;;;15.93;6.73;;;;;;;2.81;100.00;96554.81;4975775;28;20216;-71
2023/03/16 07:44:42;;;;;;;16.47;7.13;;;;;;;2.82;100.00;96556.47;4976516;28;20230;-69
2023/03/16 07:47:11;;;;;;;14.17;6.20;;;;;;;2.99;100.00;96549.91;4975336;28;20217;-71
2023/03/16 07:49:40;;;;;;;20.50;6.93;;;;;;;3.13;100.00;96553.03;4976117;28;20236;-71
2023/03/16 07:52:06;;;;;;;16.23;7.33;;;;;;;3.13;100.00;96551.28;4976213;28;21007;-73
2023/03/16 07:54:33;;;;;;;18.07;7.20;;;;;;;3.29;100.00;96549.06;4975643;28;20225;-72
2023/03/16 07:57:01;;;;;;;17.90;7.10;;;;;;;3.45;100.00;96540.81;4976203;28;20319;-71
2023/03/16 07:59:27;;;;;;;18.53;7.13;;;;;;;3.22;100.00;96544.47;4976381;28;20217;-70
2023/03/16 08:01:54;;;;;;;21.37;8.40;;;;;;;3.33;100.00;96539.25;4976875;28;20729;-71
2023/03/16 08:04:24;;;;;;;16.23;7.63;;;;;;;3.61;100.00;96538.59;4974742;28;20238;-72
2023/03/16 08:06:58;;;;;;;17.03;7.67;;;;;;;3.60;100.00;96545.59;4975643;28;20263;-71
2023/03/16 08:09:26;;;;;;;22.07;7.43;;;;;;;3.73;100.00;96552.25;4984183;28;20242;-72
2023/03/16 08:11:54;;;;;;;16.93;7.10;;;;;;;3.75;100.00;96547.72;4986247;28;20778;-71
2023/03/16 08:14:24;;;;;;;15.57;6.97;;;;;;;3.74;100.00;96551.31;4985414;28;20288;-71
2023/03/16 08:16:53;;;;;;;25.70;7.57;;;;;;;3.70;100.00;96544.72;4988547;28;20206;-71
2023/03/16 08:19:21;;;;;;;18.17;8.00;;;;;;;3.95;100.00;96543.47;4987483;28;20297;-71
2023/03/16 08:21:51;;;;;;;19.13;7.37;;;;;;;4.16;100.00;96547.66;4988650;28;20289;-71
2023/03/16 08:24:20;;;;;;;14.53;7.33;;;;;;;4.18;100.00;96556.19;4986122;28;20324;-70
2023/03/16 08:26:50;;;;;;;20.63;7.13;;;;;;;4.37;100.00;96551.06;4988542;28;20206;-70
2023/03/16 08:29:17;;;;;;;16.70;7.03;;;;;;;4.54;99.90;96542.59;4987390;28;20227;-70
2023/03/16 08:34:38;;;;;;;15.17;6.43;;;;;;;4.55;99.33;96542.47;4984199;28;20223;-70
2023/03/16 08:37:06;;;;;;;17.87;7.07;;;;;;;4.86;100.00;96550.09;4988073;28;20604;-71
2023/03/16 08:39:35;;;;;;;17.03;6.37;;;;;;;4.88;94.89;96545.56;4987498;28;20209;-71
2023/03/16 08:42:04;;;;;;;12.63;5.77;;;;;;;5.12;96.92;96553.03;4987666;28;20263;-71
2023/03/16 08:44:31;;;;;;;17.87;6.97;;;;;;;5.10;95.04;96552.31;4986096;28;20219;-71
2023/03/16 08:47:01;;;;;;;13.27;6.60;;;;;;;5.32;93.17;96546.81;4987699;28;20207;-71
2023/03/16 08:49:30;;;;;;;15.97;5.90;;;;;;;5.29;92.34;96547.09;4987301;28;20203;-71
2023/03/16 08:51:59;;;;;;;17.70;6.47;;;;;;;5.44;92.15;96549.16;4987502;28;20219;-72
2023/03/16 08:54:27;;;;;;;13.83;6.40;;;;;;;5.51;90.83;96550.25;4986771;28;20224;-71
2023/03/16 08:56:55;;;;;;;17.57;7.60;;;;;;;5.77;90.45;96553.97;4987666;28;20210;-71
2023/03/16 08:59:23;;;;;;;15.93;6.80;;;;;;;5.99;88.79;96558.88;4986899;28;20722;-71
2023/03/16 09:01:51;;;;;;;13.67;5.53;;;;;;;6.04;88.56;96551.44;4987347;28;20207;-71
2023/03/16 09:04:20;;;;;;;16.17;6.77;;;;;;;5.81;91.38;96544.88;4986676;28;20223;-71
2023/03/16 09:06:50;;;;;;;19.70;7.53;;;;;;;5.75;93.78;96542.78;4987002;28;20705;-71
2023/03/16 09:09:18;;;;;;;17.70;6.77;;;;;;;5.69;93.13;96540.72;4986761;28;20663;-71
2023/03/16 09:11:46;;;;;;;14.63;6.27;;;;;;;5.79;93.97;96541.56;4987141;28;20255;-71
2023/03/16 09:14:14;;;;;;;14.80;6.47;;;;;;;5.84;91.89;96536.75;4985598;28;20254;-71
2023/03/16 09:16:43;;;;;;;17.07;7.00;;;;;;;6.00;95.24;96552.69;4985928;28;20195;-72
2023/03/16 09:19:10;;;;;;;23.70;7.70;;;;;;;6.06;92.78;96545.09;4984039;28;20215;-71
2023/03/16 09:21:39;;;;;;;16.67;6.93;;;;;;;6.04;94.04;96547.03;4986215;28;20199;-71
2023/03/16 09:24:07;;;;;;;13.93;5.87;;;;;;;6.42;88.58;96545.09;4986509;28;20227;-71
2023/03/16 09:26:36;;;;;;;17.33;6.33;;;;;;;6.51;87.78;96546.84;4985612;28;20667;-71
2023/03/16 09:29:05;;;;;;;15.40;7.13;;;;;;;6.52;90.00;96545.88;4987379;28;20290;-71
2023/03/16 09:31:35;;;;;;;18.30;6.73;;;;;;;6.76;91.58;96546.19;4986545;28;20751;-71
2023/03/16 09:34:03;;;;;;;16.03;7.07;;;;;;;6.83;89.69;96537.56;4986796;28;20237;-72
2023/03/16 09:36:32;;;;;;;15.43;7.27;;;;;;;7.26;86.64;96536.88;4986112;28;20663;-71
2023/03/16 09:39:02;;;;;;;17.37;7.33;;;;;;;7.51;83.11;96535.16;4986462;28;20516;-72
2023/03/16 09:41:42;;;;;;;15.97;6.63;;;;;;;7.30;83.84;96532.00;4986066;28;20207;-72
2023/03/16 09:44:28;;;;;;;16.83;6.80;;;;;;;7.58;87.35;96525.69;4986709;28;20269;-71
2023/03/16 09:46:59;;;;;;;14.73;7.03;;;;;;;7.63;80.41;96515.56;4986935;28;20204;-72
2023/03/16 09:49:34;;;;;;;14.03;6.67;;;;;;;7.73;83.23;96507.63;4986917;28;20568;-71
2023/03/16 09:52:12;;;;;;;15.37;6.33;;;;;;;7.84;84.51;96504.72;4986397;28;20779;-71
2023/03/16 09:54:49;;;;;;;12.43;5.53;;;;;;;8.02;80.28;96503.72;4985078;28;20773;-71
2023/03/16 09:57:26;;;;;;;15.93;6.63;;;;;;;7.86;84.12;96498.34;4985686;28;20210;-72
2023/03/16 09:59:54;;;;;;;17.07;6.90;;;;;;;8.01;82.60;96502.06;4986801;28;20295;-71
2023/03/16 10:02:46;;;;;;;18.23;6.77;;;;;;;7.96;81.88;96496.47;4985654;28;20259;-71
2023/03/16 10:05:17;;;;;;;14.73;5.83;;;;;;;7.75;80.55;96495.16;4973303;28;20234;-72
2023/03/16 10:07:55;;;;;;;10.73;5.40;;;;;;;7.94;76.52;96485.28;4985419;28;20334;-71
2023/03/16 10:10:43;;;;;;;10.87;5.67;;;;;;;8.48;77.29;96481.31;4985372;28;20215;-71
2023/03/16 10:13:26;;;;;;;9.23;5.13;;;;;;;8.47;81.03;96480.69;4985522;28;20675;-71
2023/03/16 10:15:56;;;;;;;12.20;5.70;;;;;;;8.49;80.52;96475.09;4985904;28;20630;-71
2023/03/16 10:18:28;;;;;;;11.63;6.10;;;;;;;8.79;77.52;96468.47;4985355;28;20571;-71
2023/03/16 10:20:57;;;;;;;16.50;6.30;;;;;;;8.88;75.06;96468.31;4986427;28;20218;-71
2023/03/16 10:23:26;;;;;;;11.83;5.30;;;;;;;9.05;72.88;96462.13;4985126;28;20207;-71
2023/03/16 10:25:56;;;;;;;13.07;5.97;;;;;;;8.91;78.37;96465.38;4986020;28;20565;-72
2023/03/16 10:28:26;;;;;;;11.83;5.40;;;;;;;8.98;76.75;96466.34;4985503;28;20203;-71
2023/03/16 10:30:56;;;;;;;10.57;5.23;;;;;;;8.96;75.13;96454.38;4986430;28;20638;-72
2023/03/16 10:33:26;;;;;;;11.97;5.03;;;;;;;8.89;74.45;96463.91;4984723;28;20656;-71
2023/03/16 10:36:01;;;;;;;15.53;6.07;;;;;;;9.30;76.69;96448.00;4985767;28;20667;-71
2023/03/16 10:38:32;;;;;;;10.27;5.20;;;;;;;9.32;75.59;96456.56;4984997;28;20714;-71
2023/03/16 10:41:01;;;;;;;10.47;5.10;;;;;;;9.68;73.36;96450.78;4986239;28;20296;-71
2023/03/16 10:43:30;;;;;;;7.87;4.67;;;;;;;9.56;73.75;96446.00;4985617;28;20569;-72
2023/03/16 10:46:02;;;;;;;10.77;5.03;;;;;;;9.60;73.26;96439.41;4985911;28;20207;-71
2023/03/16 10:48:33;;;;;;;7.53;4.10;;;;;;;9.54;68.04;96438.28;4984965;28;20211;-71
2023/03/16 10:51:05;;;;;;;7.83;4.50;;;;;;;9.83;67.49;96434.13;4985468;28;20219;-71
2023/03/16 10:53:37;;;;;;;8.50;4.63;;;;;;;10.25;67.77;96412.84;4985024;28;20199;-71
2023/03/16 10:56:12;;;;;;;10.77;4.53;;;;;;;10.22;69.44;96416.63;4985221;28;20470;-71
2023/03/16 10:58:42;;;;;;;10.27;4.57;;;;;;;9.77;68.38;96413.75;4985057;28;21110;-71
2023/03/16 11:01:17;;;;;;;9.57;4.13;;;;;;;10.11;64.34;96419.63;4985830;28;20302;-71
2023/03/16 11:03:50;;;;;;;7.53;3.90;;;;;;;10.20;61.70;96413.31;4985000;28;20272;-71
2023/03/16 11:06:23;;;;;;;7.43;4.50;;;;;;;10.14;65.16;96419.25;4984874;28;20215;-72
2023/03/16 11:08:53;;;;;;;7.23;3.47;;;;;;;10.34;61.07;96420.53;4985464;28;20662;-71
2023/03/16 11:11:27;;;;;;;12.77;4.10;;;;;;;10.40;64.24;96417.22;4985012;28;20215;-72
2023/03/16 11:13:58;;;;;;;9.83;4.23;;;;;;;10.64;60.10;96407.38;4985406;28;20300;-71
2023/03/16 11:16:35;;;;;;;6.20;3.50;;;;;;;10.25;64.40;96416.28;4984559;28;20253;-71
2023/03/16 11:19:10;;;;;;;7.83;3.87;;;;;;;9.89;65.86;96415.03;4985160;28;20686;-71
2023/03/16 11:21:45;;;;;;;6.87;3.90;;;;;;;10.16;64.73;96403.31;4985143;28;20252;-71
2023/03/16 11:24:22;;;;;;;8.37;3.33;;;;;;;10.51;62.22;96411.53;4984472;28;20247;-71
2023/03/16 11:26:55;;;;;;;8.43;3.70;;;;;;;10.74;62.53;96404.50;4984882;28;20704;-71
2023/03/16 11:29:29;;;;;;;6.30;3.43;;;;;;;10.79;61.24;96400.34;4984551;28;20226;-71
2023/03/16 11:32:01;;;;;;;7.83;2.80;;;;;;;10.47;62.46;96408.41;4984965;28;20226;-72
2023/03/16 11:34:31;;;;;;;5.73;3.43;;;;;;;10.74;61.79;96399.22;4984528;28;20219;-72
2023/03/16 11:37:04;;;;;;;7.63;3.47;;;;;;;10.90;60.83;96391.22;4985313;28;20671;-72
2023/03/16 11:39:39;;;;;;;6.50;3.03;;;;;;;11.21;55.55;96388.31;4985099;28;20211;-71
2023/03/16 11:42:28;;;;;;;6.17;3.60;;;;;;;11.43;53.52;96387.50;4985061;28;20297;-71